Flight Track Log - Related Links

Times and Time Zones

All times are in EDT time to prevent confusion due to time zone crossing. See the CTL18 flight status page for this flight to view local times or setup timezone preferences in your user account.

Time Position Orientation Groundspeed Altitude Reporting Facility
EDT Latitude Longitude Course Direction KTS MPH feet Rate Location/Type
Wed 07:06:28 PM 42.6644 -83.4381 22° Northeast 108 124 1,400  Level Cleveland Center
Wed 07:08:00 PM 42.7144 -83.4105 22° Northeast  Level FlightAware Approximate
Wed 07:15:00 PM 42.9463 -83.4176 321° Northwest  Level FlightAware Approximate
Wed 07:16:00 PM 42.9737 -83.4477 321° Northwest  Level FlightAware Approximate
Wed 07:17:00 PM 43.0011 -83.4779 321° Northwest  Level FlightAware Approximate
Wed 07:18:00 PM 43.0285 -83.5081 321° Northwest  Level FlightAware Approximate
Wed 07:19:00 PM 43.0559 -83.5383 321° Northwest  Level FlightAware Approximate
Wed 07:20:00 PM 43.0832 -83.5686 321° Northwest  Level FlightAware Approximate
Wed 07:21:00 PM 43.1106 -83.5989 321° Northwest  Level FlightAware Approximate
Wed 07:22:00 PM 43.1379 -83.6292 321° Northwest  Level FlightAware Approximate
Wed 07:23:00 PM 43.1653 -83.6595 321° Northwest  Level FlightAware Approximate
Wed 07:24:00 PM 43.1926 -83.6899 321° Northwest  Level FlightAware Approximate
Wed 07:25:00 PM 43.2198 -83.7205 318° Northwest  Level FlightAware Approximate
Wed 07:26:00 PM 43.2461 -83.7526 318° Northwest  Level FlightAware Approximate
Wed 07:27:00 PM 43.2724 -83.7847 318° Northwest  Level FlightAware Approximate
Wed 07:28:00 PM 43.2987 -83.8168 318° Northwest  Level FlightAware Approximate
Wed 07:29:00 PM 43.3250 -83.8489 318° Northwest  Level FlightAware Approximate
Wed 07:30:00 PM 43.3513 -83.8811 318° Northwest  Level FlightAware Approximate
Wed 07:31:00 PM 43.3784 -83.9117 324° Northwest  Level FlightAware Approximate
Wed 07:32:00 PM 43.4069 -83.9402 324° Northwest  Level FlightAware Approximate
Wed 07:33:00 PM 43.4354 -83.9686 324° Northwest  Level FlightAware Approximate
Wed 07:34:00 PM 43.4638 -83.9971 324° Northwest  Level FlightAware Approximate
Wed 07:35:00 PM 43.4923 -84.0256 324° Northwest  Level FlightAware Approximate
Wed 07:36:00 PM 43.5146 -84.0624 305° West  Level FlightAware Approximate
Wed 07:37:00 PM 43.5167 -84.0667 305° West  Level FlightAware Approximate

Login

Don't have an account? Register now (free) for customized features, flight alerts, and more!